sensor_id;sensor_type;location;lat;lon;timestamp;P1;durP1;ratioP1;P2;durP2;ratioP2
78443;SDS011;67739;52.986;8.894;2023-08-20T00:02:07;7.65;;;3.28;;
78443;SDS011;67739;52.986;8.894;2023-08-20T00:04:35;8.18;;;2.78;;
78443;SDS011;67739;52.986;8.894;2023-08-20T00:07:02;7.15;;;2.30;;
78443;SDS011;67739;52.986;8.894;2023-08-20T00:09:28;7.53;;;3.13;;
78443;SDS011;67739;52.986;8.894;2023-08-20T00:11:54;9.48;;;3.40;;
78443;SDS011;67739;52.986;8.894;2023-08-20T00:14:19;9.80;;;2.88;;
78443;SDS011;67739;52.986;8.894;2023-08-20T00:16:45;7.68;;;2.55;;
78443;SDS011;67739;52.986;8.894;2023-08-20T00:19:11;6.13;;;2.70;;
78443;SDS011;67739;52.986;8.894;2023-08-20T00:21:40;6.63;;;2.30;;
78443;SDS011;67739;52.986;8.894;2023-08-20T00:24:07;5.70;;;2.03;;
78443;SDS011;67739;52.986;8.894;2023-08-20T00:26:33;5.80;;;1.58;;
78443;SDS011;67739;52.986;8.894;2023-08-20T00:28:58;5.95;;;2.00;;
78443;SDS011;67739;52.986;8.894;2023-08-20T00:31:24;6.18;;;1.25;;
78443;SDS011;67739;52.986;8.894;2023-08-20T00:33:49;6.88;;;1.45;;
78443;SDS011;67739;52.986;8.894;2023-08-20T00:36:15;6.28;;;1.73;;
78443;SDS011;67739;52.986;8.894;2023-08-20T00:38:40;4.28;;;1.27;;
78443;SDS011;67739;52.986;8.894;2023-08-20T00:41:05;4.53;;;1.50;;
78443;SDS011;67739;52.986;8.894;2023-08-20T00:43:30;6.07;;;1.20;;
78443;SDS011;67739;52.986;8.894;2023-08-20T00:45:58;4.65;;;1.13;;
78443;SDS011;67739;52.986;8.894;2023-08-20T00:48:24;5.63;;;1.42;;
78443;SDS011;67739;52.986;8.894;2023-08-20T00:50:50;4.78;;;1.38;;
78443;SDS011;67739;52.986;8.894;2023-08-20T00:53:16;5.00;;;1.42;;
78443;SDS011;67739;52.986;8.894;2023-08-20T00:55:42;5.15;;;1.42;;
78443;SDS011;67739;52.986;8.894;2023-08-20T00:58:10;5.43;;;1.25;;
78443;SDS011;67739;52.986;8.894;2023-08-20T01:00:37;3.85;;;0.90;;
78443;SDS011;67739;52.986;8.894;2023-08-20T01:03:02;7.90;;;1.55;;
78443;SDS011;67739;52.986;8.894;2023-08-20T01:05:29;4.00;;;1.17;;
78443;SDS011;67739;52.986;8.894;2023-08-20T01:08:08;4.97;;;1.52;;
78443;SDS011;67739;52.986;8.894;2023-08-20T01:10:39;4.65;;;1.05;;
78443;SDS011;67739;52.986;8.894;2023-08-20T01:13:13;3.88;;;0.82;;
78443;SDS011;67739;52.986;8.894;2023-08-20T01:15:39;3.88;;;0.77;;
78443;SDS011;67739;52.986;8.894;2023-08-20T01:18:05;3.88;;;0.93;;
78443;SDS011;67739;52.986;8.894;2023-08-20T01:20:33;4.50;;;1.00;;
78443;SDS011;67739;52.986;8.894;2023-08-20T01:28:27;3.70;;;1.23;;
78443;SDS011;67739;52.986;8.894;2023-08-20T01:30:54;2.78;;;0.75;;
78443;SDS011;67739;52.986;8.894;2023-08-20T01:33:22;5.90;;;1.42;;
78443;SDS011;67739;52.986;8.894;2023-08-20T01:35:49;4.43;;;0.80;;
78443;SDS011;67739;52.986;8.894;2023-08-20T01:38:14;3.28;;;0.85;;
78443;SDS011;67739;52.986;8.894;2023-08-20T01:40:40;4.90;;;1.17;;
78443;SDS011;67739;52.986;8.894;2023-08-20T01:43:05;3.05;;;0.98;;
78443;SDS011;67739;52.986;8.894;2023-08-20T01:45:30;5.15;;;1.23;;
78443;SDS011;67739;52.986;8.894;2023-08-20T01:47:56;4.80;;;1.02;;
78443;SDS011;67739;52.986;8.894;2023-08-20T01:50:21;2.95;;;1.00;;
78443;SDS011;67739;52.986;8.894;2023-08-20T01:52:46;4.00;;;1.05;;
78443;SDS011;67739;52.986;8.894;2023-08-20T01:55:12;3.20;;;0.90;;
78443;SDS011;67739;52.986;8.894;2023-08-20T01:57:37;4.95;;;0.90;;
78443;SDS011;67739;52.986;8.894;2023-08-20T02:00:03;3.95;;;1.20;;
78443;SDS011;67739;52.986;8.894;2023-08-20T02:02:30;3.97;;;1.13;;
78443;SDS011;67739;52.986;8.894;2023-08-20T02:04:56;4.90;;;1.00;;
78443;SDS011;67739;52.986;8.894;2023-08-20T02:07:21;4.20;;;1.08;;
78443;SDS011;67739;52.986;8.894;2023-08-20T02:09:46;3.28;;;1.08;;
78443;SDS011;67739;52.986;8.894;2023-08-20T02:12:12;4.30;;;1.45;;
78443;SDS011;67739;52.986;8.894;2023-08-20T02:14:37;6.18;;;1.42;;
78443;SDS011;67739;52.986;8.894;2023-08-20T02:17:03;4.40;;;1.00;;
78443;SDS011;67739;52.986;8.894;2023-08-20T02:19:29;7.60;;;1.73;;
78443;SDS011;67739;52.986;8.894;2023-08-20T02:21:54;5.72;;;1.20;;
78443;SDS011;67739;52.986;8.894;2023-08-20T02:24:19;5.00;;;1.10;;
78443;SDS011;67739;52.986;8.894;2023-08-20T02:26:45;6.18;;;1.48;;
78443;SDS011;67739;52.986;8.894;2023-08-20T02:29:10;7.75;;;1.55;;
78443;SDS011;67739;52.986;8.894;2023-08-20T02:31:35;3.63;;;1.00;;
78443;SDS011;67739;52.986;8.894;2023-08-20T02:34:01;5.32;;;1.98;;
78443;SDS011;67739;52.986;8.894;2023-08-20T02:36:26;5.30;;;1.73;;
78443;SDS011;67739;52.986;8.894;2023-08-20T02:38:52;4.95;;;1.35;;
78443;SDS011;67739;52.986;8.894;2023-08-20T02:41:17;4.75;;;1.55;;
78443;SDS011;67739;52.986;8.894;2023-08-20T02:43:42;4.60;;;1.40;;
78443;SDS011;67739;52.986;8.894;2023-08-20T02:46:07;6.60;;;1.20;;
78443;SDS011;67739;52.986;8.894;2023-08-20T02:48:33;8.95;;;2.20;;
78443;SDS011;67739;52.986;8.894;2023-08-20T02:50:58;4.03;;;1.60;;
78443;SDS011;67739;52.986;8.894;2023-08-20T02:53:24;6.00;;;1.38;;
78443;SDS011;67739;52.986;8.894;2023-08-20T02:55:49;4.65;;;1.33;;
78443;SDS011;67739;52.986;8.894;2023-08-20T02:58:14;3.80;;;1.08;;
78443;SDS011;67739;52.986;8.894;2023-08-20T03:00:40;6.93;;;1.38;;
78443;SDS011;67739;52.986;8.894;2023-08-20T03:03:07;3.90;;;1.17;;
78443;SDS011;67739;52.986;8.894;2023-08-20T03:05:33;3.78;;;1.27;;
78443;SDS011;67739;52.986;8.894;2023-08-20T03:07:59;4.93;;;1.58;;
78443;SDS011;67739;52.986;8.894;2023-08-20T03:10:25;5.50;;;1.35;;
78443;SDS011;67739;52.986;8.894;2023-08-20T03:12:56;5.13;;;1.90;;
78443;SDS011;67739;52.986;8.894;2023-08-20T03:15:21;4.72;;;1.55;;
78443;SDS011;67739;52.986;8.894;2023-08-20T03:17:46;4.75;;;1.27;;
78443;SDS011;67739;52.986;8.894;2023-08-20T03:20:12;7.13;;;1.80;;
78443;SDS011;67739;52.986;8.894;2023-08-20T03:22:37;4.38;;;1.60;;
78443;SDS011;67739;52.986;8.894;2023-08-20T03:25:03;3.50;;;0.93;;
78443;SDS011;67739;52.986;8.894;2023-08-20T03:27:29;4.25;;;1.23;;
78443;SDS011;67739;52.986;8.894;2023-08-20T03:29:54;5.15;;;1.60;;
78443;SDS011;67739;52.986;8.894;2023-08-20T03:32:20;4.18;;;1.50;;
78443;SDS011;67739;52.986;8.894;2023-08-20T03:34:45;4.57;;;1.00;;
78443;SDS011;67739;52.986;8.894;2023-08-20T03:37:10;3.88;;;1.08;;
78443;SDS011;67739;52.986;8.894;2023-08-20T03:39:36;3.83;;;0.98;;
78443;SDS011;67739;52.986;8.894;2023-08-20T03:42:01;3.05;;;0.80;;
78443;SDS011;67739;52.986;8.894;2023-08-20T03:44:26;5.05;;;1.63;;
78443;SDS011;67739;52.986;8.894;2023-08-20T03:46:52;5.60;;;1.17;;
78443;SDS011;67739;52.986;8.894;2023-08-20T03:49:17;5.00;;;1.25;;
78443;SDS011;67739;52.986;8.894;2023-08-20T03:51:42;2.38;;;0.75;;
78443;SDS011;67739;52.986;8.894;2023-08-20T03:54:08;4.30;;;1.17;;
78443;SDS011;67739;52.986;8.894;2023-08-20T03:56:34;3.00;;;0.85;;
78443;SDS011;67739;52.986;8.894;2023-08-20T03:58:59;2.65;;;0.68;;
78443;SDS011;67739;52.986;8.894;2023-08-20T04:01:24;5.18;;;1.35;;
78443;SDS011;67739;52.986;8.894;2023-08-20T04:03:50;3.75;;;0.98;;
78443;SDS011;67739;52.986;8.894;2023-08-20T04:06:15;3.75;;;0.88;;
78443;SDS011;67739;52.986;8.894;2023-08-20T04:08:40;4.50;;;1.20;;
78443;SDS011;67739;52.986;8.894;2023-08-20T04:11:06;3.03;;;0.80;;
78443;SDS011;67739;52.986;8.894;2023-08-20T04:13:32;4.32;;;1.67;;
78443;SDS011;67739;52.986;8.894;2023-08-20T04:15:57;5.18;;;1.00;;
78443;SDS011;67739;52.986;8.894;2023-08-20T04:18:23;5.85;;;1.52;;
78443;SDS011;67739;52.986;8.894;2023-08-20T04:20:51;4.78;;;1.58;;
78443;SDS011;67739;52.986;8.894;2023-08-20T04:23:18;6.20;;;1.33;;
78443;SDS011;67739;52.986;8.894;2023-08-20T04:25:46;4.32;;;1.25;;
78443;SDS011;67739;52.986;8.894;2023-08-20T04:28:12;4.10;;;1.05;;
78443;SDS011;67739;52.986;8.894;2023-08-20T04:30:37;4.95;;;1.00;;
78443;SDS011;67739;52.986;8.894;2023-08-20T04:33:03;5.18;;;1.17;;
78443;SDS011;67739;52.986;8.894;2023-08-20T04:35:28;5.93;;;1.73;;
78443;SDS011;67739;52.986;8.894;2023-08-20T04:37:54;5.50;;;0.95;;
78443;SDS011;67739;52.986;8.894;2023-08-20T04:40:19;5.35;;;1.17;;
78443;SDS011;67739;52.986;8.894;2023-08-20T04:42:44;5.60;;;1.30;;
78443;SDS011;67739;52.986;8.894;2023-08-20T04:45:10;4.00;;;0.93;;
78443;SDS011;67739;52.986;8.894;2023-08-20T04:47:36;3.15;;;1.13;;
78443;SDS011;67739;52.986;8.894;2023-08-20T04:50:01;4.00;;;0.85;;
78443;SDS011;67739;52.986;8.894;2023-08-20T04:52:27;4.45;;;1.05;;
78443;SDS011;67739;52.986;8.894;2023-08-20T04:54:53;4.45;;;0.93;;
78443;SDS011;67739;52.986;8.894;2023-08-20T04:57:18;3.25;;;0.98;;
78443;SDS011;67739;52.986;8.894;2023-08-20T04:59:43;8.27;;;1.10;;
78443;SDS011;67739;52.986;8.894;2023-08-20T05:02:10;10.85;;;1.48;;
78443;SDS011;67739;52.986;8.894;2023-08-20T05:04:37;5.95;;;1.38;;
78443;SDS011;67739;52.986;8.894;2023-08-20T05:07:02;3.42;;;1.13;;
78443;SDS011;67739;52.986;8.894;2023-08-20T05:09:28;5.57;;;1.10;;
78443;SDS011;67739;52.986;8.894;2023-08-20T05:11:53;4.53;;;1.30;;
78443;SDS011;67739;52.986;8.894;2023-08-20T05:14:19;3.45;;;1.35;;
78443;SDS011;67739;52.986;8.894;2023-08-20T05:16:44;4.30;;;1.02;;
78443;SDS011;67739;52.986;8.894;2023-08-20T05:19:09;3.30;;;1.02;;
78443;SDS011;67739;52.986;8.894;2023-08-20T05:21:35;5.65;;;0.90;;
78443;SDS011;67739;52.986;8.894;2023-08-20T05:24:00;4.22;;;0.98;;
78443;SDS011;67739;52.986;8.894;2023-08-20T05:26:25;3.88;;;0.73;;
78443;SDS011;67739;52.986;8.894;2023-08-20T05:28:51;7.50;;;1.33;;
78443;SDS011;67739;52.986;8.894;2023-08-20T05:31:16;3.65;;;1.13;;
78443;SDS011;67739;52.986;8.894;2023-08-20T05:33:41;5.18;;;0.93;;
78443;SDS011;67739;52.986;8.894;2023-08-20T05:36:06;4.47;;;0.88;;
78443;SDS011;67739;52.986;8.894;2023-08-20T05:38:32;6.45;;;1.55;;
78443;SDS011;67739;52.986;8.894;2023-08-20T05:40:57;4.53;;;1.38;;
78443;SDS011;67739;52.986;8.894;2023-08-20T05:43:22;3.95;;;1.27;;
78443;SDS011;67739;52.986;8.894;2023-08-20T05:45:48;7.03;;;1.75;;
78443;SDS011;67739;52.986;8.894;2023-08-20T05:48:13;5.30;;;1.35;;
78443;SDS011;67739;52.986;8.894;2023-08-20T05:50:38;6.70;;;2.17;;
78443;SDS011;67739;52.986;8.894;2023-08-20T05:53:04;7.97;;;2.13;;
78443;SDS011;67739;52.986;8.894;2023-08-20T05:55:29;5.00;;;1.45;;
78443;SDS011;67739;52.986;8.894;2023-08-20T05:57:54;4.93;;;1.20;;
78443;SDS011;67739;52.986;8.894;2023-08-20T06:00:19;6.88;;;1.95;;
78443;SDS011;67739;52.986;8.894;2023-08-20T06:02:45;6.15;;;1.80;;
78443;SDS011;67739;52.986;8.894;2023-08-20T06:05:10;7.38;;;1.67;;
78443;SDS011;67739;52.986;8.894;2023-08-20T06:07:36;6.15;;;1.55;;
78443;SDS011;67739;52.986;8.894;2023-08-20T06:10:01;5.75;;;1.60;;
78443;SDS011;67739;52.986;8.894;2023-08-20T06:12:27;5.93;;;1.60;;
78443;SDS011;67739;52.986;8.894;2023-08-20T06:14:53;6.78;;;1.45;;
78443;SDS011;67739;52.986;8.894;2023-08-20T06:17:18;5.70;;;1.60;;
78443;SDS011;67739;52.986;8.894;2023-08-20T06:19:44;6.40;;;2.08;;
78443;SDS011;67739;52.986;8.894;2023-08-20T06:22:09;7.25;;;2.50;;
78443;SDS011;67739;52.986;8.894;2023-08-20T06:24:35;5.68;;;1.75;;
78443;SDS011;67739;52.986;8.894;2023-08-20T06:27:01;6.78;;;1.95;;
78443;SDS011;67739;52.986;8.894;2023-08-20T06:29:26;5.72;;;2.10;;
78443;SDS011;67739;52.986;8.894;2023-08-20T06:31:51;6.53;;;2.20;;
78443;SDS011;67739;52.986;8.894;2023-08-20T06:34:17;9.10;;;1.90;;
78443;SDS011;67739;52.986;8.894;2023-08-20T06:36:42;6.97;;;2.55;;
78443;SDS011;67739;52.986;8.894;2023-08-20T06:39:08;5.85;;;1.90;;
78443;SDS011;67739;52.986;8.894;2023-08-20T06:41:33;8.27;;;2.47;;
78443;SDS011;67739;52.986;8.894;2023-08-20T06:43:59;8.65;;;2.35;;
78443;SDS011;67739;52.986;8.894;2023-08-20T06:46:24;8.60;;;2.47;;
78443;SDS011;67739;52.986;8.894;2023-08-20T06:48:50;6.70;;;2.40;;
78443;SDS011;67739;52.986;8.894;2023-08-20T06:51:15;7.38;;;2.53;;
78443;SDS011;67739;52.986;8.894;2023-08-20T06:53:44;5.60;;;1.83;;
78443;SDS011;67739;52.986;8.894;2023-08-20T06:56:09;6.78;;;2.47;;
78443;SDS011;67739;52.986;8.894;2023-08-20T06:58:36;8.10;;;2.20;;
78443;SDS011;67739;52.986;8.894;2023-08-20T07:01:03;11.10;;;3.05;;
78443;SDS011;67739;52.986;8.894;2023-08-20T07:03:34;7.95;;;2.90;;
78443;SDS011;67739;52.986;8.894;2023-08-20T07:06:02;9.32;;;2.30;;
78443;SDS011;67739;52.986;8.894;2023-08-20T07:08:27;9.40;;;2.40;;
78443;SDS011;67739;52.986;8.894;2023-08-20T07:10:53;7.13;;;2.17;;
78443;SDS011;67739;52.986;8.894;2023-08-20T07:13:18;6.57;;;2.33;;
78443;SDS011;67739;52.986;8.894;2023-08-20T07:15:43;11.25;;;3.42;;
78443;SDS011;67739;52.986;8.894;2023-08-20T07:18:09;10.27;;;2.30;;
78443;SDS011;67739;52.986;8.894;2023-08-20T07:20:38;5.35;;;1.70;;
78443;SDS011;67739;52.986;8.894;2023-08-20T07:23:03;8.57;;;2.35;;
78443;SDS011;67739;52.986;8.894;2023-08-20T07:25:28;5.95;;;1.75;;
78443;SDS011;67739;52.986;8.894;2023-08-20T07:27:54;4.95;;;1.33;;
78443;SDS011;67739;52.986;8.894;2023-08-20T07:30:24;7.88;;;2.25;;
78443;SDS011;67739;52.986;8.894;2023-08-20T07:32:49;6.18;;;1.83;;
78443;SDS011;67739;52.986;8.894;2023-08-20T07:35:15;5.50;;;1.65;;
78443;SDS011;67739;52.986;8.894;2023-08-20T07:37:40;6.65;;;1.67;;
78443;SDS011;67739;52.986;8.894;2023-08-20T07:40:06;6.13;;;1.52;;
78443;SDS011;67739;52.986;8.894;2023-08-20T07:42:31;6.40;;;1.63;;
78443;SDS011;67739;52.986;8.894;2023-08-20T07:44:57;5.03;;;1.20;;
78443;SDS011;67739;52.986;8.894;2023-08-20T07:47:22;6.80;;;1.52;;
78443;SDS011;67739;52.986;8.894;2023-08-20T07:49:47;5.20;;;1.35;;
78443;SDS011;67739;52.986;8.894;2023-08-20T07:52:13;4.07;;;1.38;;
78443;SDS011;67739;52.986;8.894;2023-08-20T07:54:38;4.43;;;1.02;;
78443;SDS011;67739;52.986;8.894;2023-08-20T07:57:03;5.03;;;1.10;;
78443;SDS011;67739;52.986;8.894;2023-08-20T07:59:29;4.13;;;1.20;;
78443;SDS011;67739;52.986;8.894;2023-08-20T08:01:54;8.93;;;1.58;;
78443;SDS011;67739;52.986;8.894;2023-08-20T08:04:20;5.53;;;1.35;;
78443;SDS011;67739;52.986;8.894;2023-08-20T08:06:45;5.03;;;1.15;;
78443;SDS011;67739;52.986;8.894;2023-08-20T08:09:20;4.05;;;1.08;;
78443;SDS011;67739;52.986;8.894;2023-08-20T08:11:56;6.82;;;1.25;;
78443;SDS011;67739;52.986;8.894;2023-08-20T08:14:23;6.45;;;1.48;;
78443;SDS011;67739;52.986;8.894;2023-08-20T08:16:49;6.50;;;1.50;;
78443;SDS011;67739;52.986;8.894;2023-08-20T08:19:15;5.32;;;1.20;;
78443;SDS011;67739;52.986;8.894;2023-08-20T08:21:41;4.47;;;1.42;;
78443;SDS011;67739;52.986;8.894;2023-08-20T08:24:08;3.28;;;1.17;;
78443;SDS011;67739;52.986;8.894;2023-08-20T08:26:34;4.43;;;1.10;;
78443;SDS011;67739;52.986;8.894;2023-08-20T08:29:00;4.90;;;1.23;;
78443;SDS011;67739;52.986;8.894;2023-08-20T08:31:26;4.65;;;1.27;;
78443;SDS011;67739;52.986;8.894;2023-08-20T08:33:52;4.22;;;1.00;;
78443;SDS011;67739;52.986;8.894;2023-08-20T08:36:17;4.47;;;1.20;;
78443;SDS011;67739;52.986;8.894;2023-08-20T08:38:43;5.03;;;1.77;;
78443;SDS011;67739;52.986;8.894;2023-08-20T08:41:10;4.78;;;1.45;;
78443;SDS011;67739;52.986;8.894;2023-08-20T08:43:37;4.55;;;1.33;;
78443;SDS011;67739;52.986;8.894;2023-08-20T08:46:04;5.10;;;1.35;;
78443;SDS011;67739;52.986;8.894;2023-08-20T08:48:32;6.88;;;2.00;;
78443;SDS011;67739;52.986;8.894;2023-08-20T08:51:00;5.28;;;1.63;;
78443;SDS011;67739;52.986;8.894;2023-08-20T08:53:27;5.25;;;1.42;;
78443;SDS011;67739;52.986;8.894;2023-08-20T08:55:53;5.28;;;1.75;;
78443;SDS011;67739;52.986;8.894;2023-08-20T08:58:18;6.03;;;1.92;;
78443;SDS011;67739;52.986;8.894;2023-08-20T09:00:43;5.68;;;2.40;;
78443;SDS011;67739;52.986;8.894;2023-08-20T09:03:09;4.35;;;1.55;;
78443;SDS011;67739;52.986;8.894;2023-08-20T09:05:45;8.52;;;1.98;;
78443;SDS011;67739;52.986;8.894;2023-08-20T09:08:23;7.55;;;1.98;;
78443;SDS011;67739;52.986;8.894;2023-08-20T09:10:52;5.80;;;2.05;;
78443;SDS011;67739;52.986;8.894;2023-08-20T09:13:22;5.75;;;2.33;;
78443;SDS011;67739;52.986;8.894;2023-08-20T09:15:52;8.48;;;2.78;;
78443;SDS011;67739;52.986;8.894;2023-08-20T09:18:18;6.00;;;1.80;;
78443;SDS011;67739;52.986;8.894;2023-08-20T09:20:44;4.78;;;1.83;;
78443;SDS011;67739;52.986;8.894;2023-08-20T09:23:12;6.38;;;2.55;;
78443;SDS011;67739;52.986;8.894;2023-08-20T09:25:39;6.22;;;1.98;;
78443;SDS011;67739;52.986;8.894;2023-08-20T09:28:05;5.30;;;1.92;;
78443;SDS011;67739;52.986;8.894;2023-08-20T09:30:31;4.75;;;2.17;;
78443;SDS011;67739;52.986;8.894;2023-08-20T09:33:04;5.93;;;1.90;;
78443;SDS011;67739;52.986;8.894;2023-08-20T09:35:33;6.43;;;2.15;;
78443;SDS011;67739;52.986;8.894;2023-08-20T09:38:00;6.03;;;2.70;;
78443;SDS011;67739;52.986;8.894;2023-08-20T09:40:27;7.13;;;2.22;;
78443;SDS011;67739;52.986;8.894;2023-08-20T09:42:53;6.30;;;2.33;;
78443;SDS011;67739;52.986;8.894;2023-08-20T09:45:20;5.05;;;1.92;;
78443;SDS011;67739;52.986;8.894;2023-08-20T09:47:45;5.78;;;1.58;;
78443;SDS011;67739;52.986;8.894;2023-08-20T09:50:13;6.43;;;2.50;;
78443;SDS011;67739;52.986;8.894;2023-08-20T09:52:46;4.25;;;1.48;;
78443;SDS011;67739;52.986;8.894;2023-08-20T09:55:20;6.93;;;1.90;;
78443;SDS011;67739;52.986;8.894;2023-08-20T09:57:47;7.13;;;2.20;;
78443;SDS011;67739;52.986;8.894;2023-08-20T10:00:14;8.10;;;2.55;;
78443;SDS011;67739;52.986;8.894;2023-08-20T10:02:39;6.38;;;2.40;;
78443;SDS011;67739;52.986;8.894;2023-08-20T10:05:06;5.30;;;2.58;;
78443;SDS011;67739;52.986;8.894;2023-08-20T10:07:33;7.25;;;2.45;;
78443;SDS011;67739;52.986;8.894;2023-08-20T10:10:03;5.68;;;1.80;;
78443;SDS011;67739;52.986;8.894;2023-08-20T10:12:31;6.50;;;2.42;;
78443;SDS011;67739;52.986;8.894;2023-08-20T10:15:00;6.10;;;2.00;;
78443;SDS011;67739;52.986;8.894;2023-08-20T10:17:27;6.38;;;1.70;;
78443;SDS011;67739;52.986;8.894;2023-08-20T10:19:55;5.60;;;1.50;;
78443;SDS011;67739;52.986;8.894;2023-08-20T10:22:22;6.57;;;1.40;;
78443;SDS011;67739;52.986;8.894;2023-08-20T10:24:56;6.50;;;2.50;;
78443;SDS011;67739;52.986;8.894;2023-08-20T10:27:32;4.95;;;1.65;;
78443;SDS011;67739;52.986;8.894;2023-08-20T10:29:59;5.97;;;1.83;;
78443;SDS011;67739;52.986;8.894;2023-08-20T10:35:11;6.97;;;1.73;;
78443;SDS011;67739;52.986;8.894;2023-08-20T10:37:37;3.47;;;1.35;;
78443;SDS011;67739;52.986;8.894;2023-08-20T10:40:02;7.10;;;1.90;;
78443;SDS011;67739;52.986;8.894;2023-08-20T10:42:29;5.80;;;1.50;;
78443;SDS011;67739;52.986;8.894;2023-08-20T10:47:23;5.57;;;1.50;;
78443;SDS011;67739;52.986;8.894;2023-08-20T10:49:53;5.28;;;1.38;;
78443;SDS011;67739;52.986;8.894;2023-08-20T10:52:22;4.63;;;1.60;;
78443;SDS011;67739;52.986;8.894;2023-08-20T10:54:51;5.13;;;1.65;;
78443;SDS011;67739;52.986;8.894;2023-08-20T10:57:17;5.90;;;2.03;;
78443;SDS011;67739;52.986;8.894;2023-08-20T10:59:47;4.03;;;1.25;;
78443;SDS011;67739;52.986;8.894;2023-08-20T11:02:22;5.88;;;1.40;;
78443;SDS011;67739;52.986;8.894;2023-08-20T11:04:48;5.15;;;1.90;;
78443;SDS011;67739;52.986;8.894;2023-08-20T11:07:13;4.90;;;1.67;;
78443;SDS011;67739;52.986;8.894;2023-08-20T11:09:43;5.07;;;1.30;;
78443;SDS011;67739;52.986;8.894;2023-08-20T11:12:09;4.85;;;1.45;;
78443;SDS011;67739;52.986;8.894;2023-08-20T11:14:35;3.42;;;1.40;;
78443;SDS011;67739;52.986;8.894;2023-08-20T11:17:00;3.60;;;1.25;;
78443;SDS011;67739;52.986;8.894;2023-08-20T11:19:26;4.80;;;1.67;;
78443;SDS011;67739;52.986;8.894;2023-08-20T11:21:53;3.50;;;1.23;;
78443;SDS011;67739;52.986;8.894;2023-08-20T11:24:19;4.25;;;1.10;;
78443;SDS011;67739;52.986;8.894;2023-08-20T11:26:45;3.53;;;1.30;;
78443;SDS011;67739;52.986;8.894;2023-08-20T11:29:15;3.33;;;1.30;;
78443;SDS011;67739;52.986;8.894;2023-08-20T11:31:45;4.45;;;1.60;;
78443;SDS011;67739;52.986;8.894;2023-08-20T11:34:11;3.85;;;1.35;;
78443;SDS011;67739;52.986;8.894;2023-08-20T11:36:38;4.53;;;0.98;;
78443;SDS011;67739;52.986;8.894;2023-08-20T11:39:04;3.95;;;1.40;;
78443;SDS011;67739;52.986;8.894;2023-08-20T11:41:31;3.45;;;1.27;;
78443;SDS011;67739;52.986;8.894;2023-08-20T11:43:56;4.78;;;1.52;;
78443;SDS011;67739;52.986;8.894;2023-08-20T11:46:23;4.88;;;1.30;;
78443;SDS011;67739;52.986;8.894;2023-08-20T11:51:56;3.45;;;1.50;;
78443;SDS011;67739;52.986;8.894;2023-08-20T11:54:21;4.55;;;1.52;;
78443;SDS011;67739;52.986;8.894;2023-08-20T11:56:51;3.35;;;1.08;;
78443;SDS011;67739;52.986;8.894;2023-08-20T11:59:18;4.47;;;1.33;;
78443;SDS011;67739;52.986;8.894;2023-08-20T12:01:49;4.57;;;1.27;;
78443;SDS011;67739;52.986;8.894;2023-08-20T12:04:16;4.30;;;1.58;;
78443;SDS011;67739;52.986;8.894;2023-08-20T12:06:41;3.95;;;1.55;;
78443;SDS011;67739;52.986;8.894;2023-08-20T12:09:18;3.72;;;1.40;;
78443;SDS011;67739;52.986;8.894;2023-08-20T12:11:50;2.65;;;1.00;;
78443;SDS011;67739;52.986;8.894;2023-08-20T12:14:21;3.55;;;1.13;;
78443;SDS011;67739;52.986;8.894;2023-08-20T12:16:47;3.83;;;1.40;;
78443;SDS011;67739;52.986;8.894;2023-08-20T12:19:13;4.53;;;1.52;;
78443;SDS011;67739;52.986;8.894;2023-08-20T12:21:41;3.35;;;1.20;;
78443;SDS011;67739;52.986;8.894;2023-08-20T12:24:08;3.65;;;1.05;;
78443;SDS011;67739;52.986;8.894;2023-08-20T12:26:34;3.83;;;1.33;;
78443;SDS011;67739;52.986;8.894;2023-08-20T12:29:00;4.07;;;1.55;;
78443;SDS011;67739;52.986;8.894;2023-08-20T12:31:25;3.90;;;1.50;;
78443;SDS011;67739;52.986;8.894;2023-08-20T12:33:51;3.22;;;1.13;;
78443;SDS011;67739;52.986;8.894;2023-08-20T12:36:16;3.33;;;1.20;;
78443;SDS011;67739;52.986;8.894;2023-08-20T12:38:41;3.50;;;1.10;;
78443;SDS011;67739;52.986;8.894;2023-08-20T12:41:07;4.18;;;1.25;;
78443;SDS011;67739;52.986;8.894;2023-08-20T12:43:32;4.40;;;1.45;;
78443;SDS011;67739;52.986;8.894;2023-08-20T12:45:57;3.58;;;1.45;;
78443;SDS011;67739;52.986;8.894;2023-08-20T12:48:23;3.47;;;1.38;;
78443;SDS011;67739;52.986;8.894;2023-08-20T12:50:48;3.80;;;1.17;;
78443;SDS011;67739;52.986;8.894;2023-08-20T12:53:14;4.15;;;1.40;;
78443;SDS011;67739;52.986;8.894;2023-08-20T12:55:39;3.15;;;1.13;;
78443;SDS011;67739;52.986;8.894;2023-08-20T12:58:04;3.97;;;1.30;;
78443;SDS011;67739;52.986;8.894;2023-08-20T13:00:30;3.55;;;0.95;;
78443;SDS011;67739;52.986;8.894;2023-08-20T13:02:55;3.20;;;1.33;;
78443;SDS011;67739;52.986;8.894;2023-08-20T13:05:22;3.45;;;1.10;;
78443;SDS011;67739;52.986;8.894;2023-08-20T13:07:49;3.30;;;1.23;;
78443;SDS011;67739;52.986;8.894;2023-08-20T13:10:14;3.22;;;1.10;;
78443;SDS011;67739;52.986;8.894;2023-08-20T13:12:48;2.88;;;1.02;;
78443;SDS011;67739;52.986;8.894;2023-08-20T13:15:16;2.80;;;0.93;;
78443;SDS011;67739;52.986;8.894;2023-08-20T13:17:42;3.85;;;1.20;;
78443;SDS011;67739;52.986;8.894;2023-08-20T13:20:08;3.10;;;0.90;;
78443;SDS011;67739;52.986;8.894;2023-08-20T13:22:35;3.17;;;1.23;;
78443;SDS011;67739;52.986;8.894;2023-08-20T13:25:01;4.55;;;1.48;;
78443;SDS011;67739;52.986;8.894;2023-08-20T13:27:26;2.75;;;1.10;;
78443;SDS011;67739;52.986;8.894;2023-08-20T13:29:51;3.33;;;1.10;;
78443;SDS011;67739;52.986;8.894;2023-08-20T13:32:17;3.05;;;1.02;;
78443;SDS011;67739;52.986;8.894;2023-08-20T13:34:42;4.03;;;1.42;;
78443;SDS011;67739;52.986;8.894;2023-08-20T13:37:07;3.50;;;1.30;;
78443;SDS011;67739;52.986;8.894;2023-08-20T13:39:32;3.22;;;1.20;;
78443;SDS011;67739;52.986;8.894;2023-08-20T13:41:58;3.38;;;0.93;;
78443;SDS011;67739;52.986;8.894;2023-08-20T13:44:23;3.55;;;1.10;;
78443;SDS011;67739;52.986;8.894;2023-08-20T13:46:48;3.35;;;1.00;;
78443;SDS011;67739;52.986;8.894;2023-08-20T13:49:14;3.97;;;1.05;;
78443;SDS011;67739;52.986;8.894;2023-08-20T13:51:39;2.85;;;1.10;;
78443;SDS011;67739;52.986;8.894;2023-08-20T13:54:05;2.92;;;1.13;;
78443;SDS011;67739;52.986;8.894;2023-08-20T13:56:30;2.95;;;1.08;;
78443;SDS011;67739;52.986;8.894;2023-08-20T13:58:55;3.60;;;1.13;;
78443;SDS011;67739;52.986;8.894;2023-08-20T14:01:21;2.10;;;0.60;;
78443;SDS011;67739;52.986;8.894;2023-08-20T14:03:46;2.88;;;0.85;;
78443;SDS011;67739;52.986;8.894;2023-08-20T14:06:12;2.35;;;0.77;;
78443;SDS011;67739;52.986;8.894;2023-08-20T14:08:37;3.83;;;0.98;;
78443;SDS011;67739;52.986;8.894;2023-08-20T14:11:02;3.40;;;1.23;;
78443;SDS011;67739;52.986;8.894;2023-08-20T14:13:28;3.65;;;1.13;;
78443;SDS011;67739;52.986;8.894;2023-08-20T14:15:53;3.17;;;0.93;;
78443;SDS011;67739;52.986;8.894;2023-08-20T14:18:19;3.10;;;0.73;;
78443;SDS011;67739;52.986;8.894;2023-08-20T14:20:44;2.90;;;0.88;;
78443;SDS011;67739;52.986;8.894;2023-08-20T14:23:09;2.22;;;0.85;;
78443;SDS011;67739;52.986;8.894;2023-08-20T14:25:35;3.67;;;1.10;;
78443;SDS011;67739;52.986;8.894;2023-08-20T14:28:00;2.83;;;0.93;;
78443;SDS011;67739;52.986;8.894;2023-08-20T14:30:26;2.97;;;1.00;;
78443;SDS011;67739;52.986;8.894;2023-08-20T14:32:52;2.63;;;0.88;;
78443;SDS011;67739;52.986;8.894;2023-08-20T14:35:18;3.45;;;1.10;;
78443;SDS011;67739;52.986;8.894;2023-08-20T14:37:44;2.38;;;0.73;;
78443;SDS011;67739;52.986;8.894;2023-08-20T14:40:10;3.13;;;1.05;;
78443;SDS011;67739;52.986;8.894;2023-08-20T14:42:35;2.35;;;0.90;;
78443;SDS011;67739;52.986;8.894;2023-08-20T14:45:01;3.65;;;1.02;;
78443;SDS011;67739;52.986;8.894;2023-08-20T14:47:28;3.10;;;1.00;;
78443;SDS011;67739;52.986;8.894;2023-08-20T14:49:54;3.58;;;1.00;;
78443;SDS011;67739;52.986;8.894;2023-08-20T14:52:19;2.40;;;0.80;;
78443;SDS011;67739;52.986;8.894;2023-08-20T14:54:44;2.55;;;0.73;;
78443;SDS011;67739;52.986;8.894;2023-08-20T14:57:11;2.70;;;0.90;;